sensor_id;sensor_type;location;lat;lon;timestamp;temperature;humidity
55173;DHT22;41061;52.822;6.860;2024-02-14T05:22:04;9.50;99.90
55173;DHT22;41061;52.822;6.860;2024-02-14T05:31:51;9.60;99.90
55173;DHT22;41061;52.822;6.860;2024-02-14T05:34:20;9.60;99.90
55173;DHT22;41061;52.822;6.860;2024-02-14T05:36:46;9.60;99.90
55173;DHT22;41061;52.822;6.860;2024-02-14T05:39:12;9.60;99.90
55173;DHT22;41061;52.822;6.860;2024-02-14T05:41:40;9.60;99.90
55173;DHT22;41061;52.822;6.860;2024-02-14T05:44:05;9.60;99.90
55173;DHT22;41061;52.822;6.860;2024-02-14T05:46:31;9.70;99.90
55173;DHT22;41061;52.822;6.860;2024-02-14T05:48:57;9.70;99.90
55173;DHT22;41061;52.822;6.860;2024-02-14T05:51:23;9.70;99.90
55173;DHT22;41061;52.822;6.860;2024-02-14T05:53:49;9.70;99.90
55173;DHT22;41061;52.822;6.860;2024-02-14T05:56:15;9.70;99.90
55173;DHT22;41061;52.822;6.860;2024-02-14T05:58:41;9.70;99.90
55173;DHT22;41061;52.822;6.860;2024-02-14T06:01:06;9.80;99.90
55173;DHT22;41061;52.822;6.860;2024-02-14T06:03:32;9.80;99.90
55173;DHT22;41061;52.822;6.860;2024-02-14T06:05:58;9.80;99.90
55173;DHT22;41061;52.822;6.860;2024-02-14T06:08:24;9.80;99.90
55173;DHT22;41061;52.822;6.860;2024-02-14T06:10:50;9.80;99.90
55173;DHT22;41061;52.822;6.860;2024-02-14T06:15:42;9.80;99.90
55173;DHT22;41061;52.822;6.860;2024-02-14T06:18:08;9.80;99.90
55173;DHT22;41061;52.822;6.860;2024-02-14T06:20:34;9.80;99.90
55173;DHT22;41061;52.822;6.860;2024-02-14T06:23:00;9.80;99.90
55173;DHT22;41061;52.822;6.860;2024-02-14T06:25:25;9.90;99.90
55173;DHT22;41061;52.822;6.860;2024-02-14T06:27:52;9.90;99.90
55173;DHT22;41061;52.822;6.860;2024-02-14T06:30:19;10.00;99.90
55173;DHT22;41061;52.822;6.860;2024-02-14T06:32:45;10.00;99.90
55173;DHT22;41061;52.822;6.860;2024-02-14T06:35:11;10.00;99.90
55173;DHT22;41061;52.822;6.860;2024-02-14T06:37:36;10.00;99.90
55173;DHT22;41061;52.822;6.860;2024-02-14T06:40:02;10.00;99.90
55173;DHT22;41061;52.822;6.860;2024-02-14T06:42:34;10.00;99.90
55173;DHT22;41061;52.822;6.860;2024-02-14T06:45:00;10.10;99.90
55173;DHT22;41061;52.822;6.860;2024-02-14T06:47:25;10.10;99.90
55173;DHT22;41061;52.822;6.860;2024-02-14T06:49:55;10.20;99.90
55173;DHT22;41061;52.822;6.860;2024-02-14T06:52:21;10.20;99.90
55173;DHT22;41061;52.822;6.860;2024-02-14T06:54:47;10.20;99.90
55173;DHT22;41061;52.822;6.860;2024-02-14T06:57:14;10.20;99.90
55173;DHT22;41061;52.822;6.860;2024-02-14T06:59:39;10.30;99.90
55173;DHT22;41061;52.822;6.860;2024-02-14T07:02:05;10.30;99.90
55173;DHT22;41061;52.822;6.860;2024-02-14T07:04:32;10.30;99.90
55173;DHT22;41061;52.822;6.860;2024-02-14T07:06:58;10.30;99.90
55173;DHT22;41061;52.822;6.860;2024-02-14T07:09:24;10.30;99.90
55173;DHT22;41061;52.822;6.860;2024-02-14T07:11:51;10.30;99.90
55173;DHT22;41061;52.822;6.860;2024-02-14T07:14:19;10.30;99.90
55173;DHT22;41061;52.822;6.860;2024-02-14T07:16:45;10.40;99.90
55173;DHT22;41061;52.822;6.860;2024-02-14T07:19:11;10.30;99.90
55173;DHT22;41061;52.822;6.860;2024-02-14T07:21:36;10.40;99.90
55173;DHT22;41061;52.822;6.860;2024-02-14T07:24:04;10.40;99.90
55173;DHT22;41061;52.822;6.860;2024-02-14T07:26:30;10.40;99.90
55173;DHT22;41061;52.822;6.860;2024-02-14T07:28:56;10.40;99.90
55173;DHT22;41061;52.822;6.860;2024-02-14T07:31:22;10.40;99.90
55173;DHT22;41061;52.822;6.860;2024-02-14T07:33:48;10.40;99.90
55173;DHT22;41061;52.822;6.860;2024-02-14T07:36:15;10.40;99.90
55173;DHT22;41061;52.822;6.860;2024-02-14T07:38:42;10.40;99.90
55173;DHT22;41061;52.822;6.860;2024-02-14T07:41:08;10.50;99.90
55173;DHT22;41061;52.822;6.860;2024-02-14T07:43:34;10.40;99.90
55173;DHT22;41061;52.822;6.860;2024-02-14T07:46:00;10.40;99.90
55173;DHT22;41061;52.822;6.860;2024-02-14T07:48:25;10.40;99.90
55173;DHT22;41061;52.822;6.860;2024-02-14T07:50:51;10.40;99.90
55173;DHT22;41061;52.822;6.860;2024-02-14T07:53:17;10.40;99.90
55173;DHT22;41061;52.822;6.860;2024-02-14T07:55:43;10.40;99.90
55173;DHT22;41061;52.822;6.860;2024-02-14T07:58:08;10.40;99.90
55173;DHT22;41061;52.822;6.860;2024-02-14T08:00:34;10.40;99.90
55173;DHT22;41061;52.822;6.860;2024-02-14T08:03:00;10.50;99.90
55173;DHT22;41061;52.822;6.860;2024-02-14T08:05:29;10.50;99.90
55173;DHT22;41061;52.822;6.860;2024-02-14T08:07:54;10.60;99.90
55173;DHT22;41061;52.822;6.860;2024-02-14T08:10:20;10.40;99.90
55173;DHT22;41061;52.822;6.860;2024-02-14T08:12:46;10.40;99.90
55173;DHT22;41061;52.822;6.860;2024-02-14T08:15:16;10.40;99.90
55173;DHT22;41061;52.822;6.860;2024-02-14T08:17:41;10.40;99.90
55173;DHT22;41061;52.822;6.860;2024-02-14T08:20:07;10.40;99.90
55173;DHT22;41061;52.822;6.860;2024-02-14T08:22:33;10.40;99.90
55173;DHT22;41061;52.822;6.860;2024-02-14T08:24:59;10.40;99.90
55173;DHT22;41061;52.822;6.860;2024-02-14T08:27:25;10.50;99.90
55173;DHT22;41061;52.822;6.860;2024-02-14T08:29:56;10.50;99.90
55173;DHT22;41061;52.822;6.860;2024-02-14T08:32:22;10.50;99.90
55173;DHT22;41061;52.822;6.860;2024-02-14T08:34:48;10.50;99.90
55173;DHT22;41061;52.822;6.860;2024-02-14T08:37:15;10.50;99.90
55173;DHT22;41061;52.822;6.860;2024-02-14T08:39:41;10.60;99.90
55173;DHT22;41061;52.822;6.860;2024-02-14T08:42:07;10.50;99.90
55173;DHT22;41061;52.822;6.860;2024-02-14T08:44:36;10.50;99.90
55173;DHT22;41061;52.822;6.860;2024-02-14T08:47:03;10.60;99.90
55173;DHT22;41061;52.822;6.860;2024-02-14T08:49:29;10.60;99.90
55173;DHT22;41061;52.822;6.860;2024-02-14T08:51:55;10.60;99.90
55173;DHT22;41061;52.822;6.860;2024-02-14T08:54:21;10.50;99.90
55173;DHT22;41061;52.822;6.860;2024-02-14T08:56:48;10.60;99.90
55173;DHT22;41061;52.822;6.860;2024-02-14T08:59:14;10.60;99.90
55173;DHT22;41061;52.822;6.860;2024-02-14T09:01:40;10.60;99.90
55173;DHT22;41061;52.822;6.860;2024-02-14T09:04:06;10.60;99.90
55173;DHT22;41061;52.822;6.860;2024-02-14T09:06:31;10.60;99.90
55173;DHT22;41061;52.822;6.860;2024-02-14T09:08:58;10.70;99.90
55173;DHT22;41061;52.822;6.860;2024-02-14T09:11:24;10.70;99.90
55173;DHT22;41061;52.822;6.860;2024-02-14T09:13:51;10.70;99.90
55173;DHT22;41061;52.822;6.860;2024-02-14T09:16:19;10.70;99.90
55173;DHT22;41061;52.822;6.860;2024-02-14T09:18:47;10.80;99.90
55173;DHT22;41061;52.822;6.860;2024-02-14T09:21:13;10.70;99.90
55173;DHT22;41061;52.822;6.860;2024-02-14T09:23:41;10.80;99.90
55173;DHT22;41061;52.822;6.860;2024-02-14T09:26:07;10.70;99.90
55173;DHT22;41061;52.822;6.860;2024-02-14T09:28:33;10.80;99.90
55173;DHT22;41061;52.822;6.860;2024-02-14T09:31:00;10.80;99.90
55173;DHT22;41061;52.822;6.860;2024-02-14T09:33:26;10.80;99.90
55173;DHT22;41061;52.822;6.860;2024-02-14T09:35:52;10.70;99.90
55173;DHT22;41061;52.822;6.860;2024-02-14T09:38:18;10.70;99.90
55173;DHT22;41061;52.822;6.860;2024-02-14T09:40:44;10.80;99.90
55173;DHT22;41061;52.822;6.860;2024-02-14T09:43:56;10.80;99.90
55173;DHT22;41061;52.822;6.860;2024-02-14T09:46:15;10.70;99.90
55173;DHT22;41061;52.822;6.860;2024-02-14T09:48:44;10.70;99.90
55173;DHT22;41061;52.822;6.860;2024-02-14T09:51:11;10.70;99.90
55173;DHT22;41061;52.822;6.860;2024-02-14T09:53:38;10.70;99.90
55173;DHT22;41061;52.822;6.860;2024-02-14T09:56:05;10.80;99.90
55173;DHT22;41061;52.822;6.860;2024-02-14T09:58:31;10.70;99.90
55173;DHT22;41061;52.822;6.860;2024-02-14T10:01:00;10.80;99.90
55173;DHT22;41061;52.822;6.860;2024-02-14T10:03:26;10.80;99.90
55173;DHT22;41061;52.822;6.860;2024-02-14T10:05:52;10.90;99.90
55173;DHT22;41061;52.822;6.860;2024-02-14T10:08:18;10.90;99.90
55173;DHT22;41061;52.822;6.860;2024-02-14T10:10:47;11.00;99.90
55173;DHT22;41061;52.822;6.860;2024-02-14T10:13:13;11.00;99.90
55173;DHT22;41061;52.822;6.860;2024-02-14T10:15:38;11.10;99.90
55173;DHT22;41061;52.822;6.860;2024-02-14T10:18:05;11.10;99.90
55173;DHT22;41061;52.822;6.860;2024-02-14T10:20:30;11.10;99.90
55173;DHT22;41061;52.822;6.860;2024-02-14T10:23:03;11.00;99.90
55173;DHT22;41061;52.822;6.860;2024-02-14T10:25:29;11.10;99.90
55173;DHT22;41061;52.822;6.860;2024-02-14T10:27:56;11.20;99.90
55173;DHT22;41061;52.822;6.860;2024-02-14T10:30:22;11.10;99.90
55173;DHT22;41061;52.822;6.860;2024-02-14T10:32:48;11.10;99.90
55173;DHT22;41061;52.822;6.860;2024-02-14T10:35:14;11.10;99.90
55173;DHT22;41061;52.822;6.860;2024-02-14T10:37:41;11.10;99.90
55173;DHT22;41061;52.822;6.860;2024-02-14T10:40:08;11.20;99.90
55173;DHT22;41061;52.822;6.860;2024-02-14T10:42:35;11.10;99.90
55173;DHT22;41061;52.822;6.860;2024-02-14T10:45:02;11.20;99.90
55173;DHT22;41061;52.822;6.860;2024-02-14T10:47:32;11.20;99.90
55173;DHT22;41061;52.822;6.860;2024-02-14T10:50:07;11.20;99.90
55173;DHT22;41061;52.822;6.860;2024-02-14T10:52:35;11.20;99.90
55173;DHT22;41061;52.822;6.860;2024-02-14T10:55:05;11.20;99.90
55173;DHT22;41061;52.822;6.860;2024-02-14T10:57:31;11.20;99.90
55173;DHT22;41061;52.822;6.860;2024-02-14T11:00:00;11.20;99.90
55173;DHT22;41061;52.822;6.860;2024-02-14T11:02:26;11.20;99.90
55173;DHT22;41061;52.822;6.860;2024-02-14T11:04:56;11.30;99.90
55173;DHT22;41061;52.822;6.860;2024-02-14T11:07:22;11.30;99.90
55173;DHT22;41061;52.822;6.860;2024-02-14T11:10:06;11.30;99.90
55173;DHT22;41061;52.822;6.860;2024-02-14T11:12:36;11.30;99.90
55173;DHT22;41061;52.822;6.860;2024-02-14T11:15:22;11.40;99.90
55173;DHT22;41061;52.822;6.860;2024-02-14T11:17:48;11.30;99.90
55173;DHT22;41061;52.822;6.860;2024-02-14T11:22:52;11.40;99.90
55173;DHT22;41061;52.822;6.860;2024-02-14T11:25:18;11.40;99.90
55173;DHT22;41061;52.822;6.860;2024-02-14T11:27:47;11.40;99.90
55173;DHT22;41061;52.822;6.860;2024-02-14T11:30:13;11.40;99.90
55173;DHT22;41061;52.822;6.860;2024-02-14T11:32:40;11.40;99.90
55173;DHT22;41061;52.822;6.860;2024-02-14T11:35:11;11.50;99.90
55173;DHT22;41061;52.822;6.860;2024-02-14T11:37:38;11.50;99.90
55173;DHT22;41061;52.822;6.860;2024-02-14T11:40:04;11.50;99.90
55173;DHT22;41061;52.822;6.860;2024-02-14T11:42:32;11.60;99.90
55173;DHT22;41061;52.822;6.860;2024-02-14T11:44:58;11.60;99.90
55173;DHT22;41061;52.822;6.860;2024-02-14T11:47:24;11.50;99.90
55173;DHT22;41061;52.822;6.860;2024-02-14T11:49:50;11.50;99.90
55173;DHT22;41061;52.822;6.860;2024-02-14T11:52:16;11.50;99.90
55173;DHT22;41061;52.822;6.860;2024-02-14T11:54:46;11.50;99.90
55173;DHT22;41061;52.822;6.860;2024-02-14T11:57:17;11.50;99.90
55173;DHT22;41061;52.822;6.860;2024-02-14T11:59:44;11.50;99.90
55173;DHT22;41061;52.822;6.860;2024-02-14T12:02:12;11.50;99.90
55173;DHT22;41061;52.822;6.860;2024-02-14T12:04:38;11.50;99.90
55173;DHT22;41061;52.822;6.860;2024-02-14T12:07:04;11.60;99.90
55173;DHT22;41061;52.822;6.860;2024-02-14T12:09:30;11.60;99.90
55173;DHT22;41061;52.822;6.860;2024-02-14T12:11:57;11.60;99.90
55173;DHT22;41061;52.822;6.860;2024-02-14T12:14:22;11.50;99.90
55173;DHT22;41061;52.822;6.860;2024-02-14T12:19:18;11.90;99.90
55173;DHT22;41061;52.822;6.860;2024-02-14T12:21:44;11.60;99.90
55173;DHT22;41061;52.822;6.860;2024-02-14T12:24:11;11.70;99.90
55173;DHT22;41061;52.822;6.860;2024-02-14T12:26:38;11.70;99.90
55173;DHT22;41061;52.822;6.860;2024-02-14T12:29:04;11.70;99.90
55173;DHT22;41061;52.822;6.860;2024-02-14T12:31:32;11.70;99.90
55173;DHT22;41061;52.822;6.860;2024-02-14T12:33:58;11.60;99.90
55173;DHT22;41061;52.822;6.860;2024-02-14T12:36:27;11.70;99.90
55173;DHT22;41061;52.822;6.860;2024-02-14T12:38:54;11.70;99.90
55173;DHT22;41061;52.822;6.860;2024-02-14T12:41:20;11.70;99.90
55173;DHT22;41061;52.822;6.860;2024-02-14T13:08:13;12.00;99.90
55173;DHT22;41061;52.822;6.860;2024-02-14T13:10:39;11.90;99.90
55173;DHT22;41061;52.822;6.860;2024-02-14T13:13:05;11.90;99.90
55173;DHT22;41061;52.822;6.860;2024-02-14T13:15:31;11.90;99.90
55173;DHT22;41061;52.822;6.860;2024-02-14T13:17:57;11.90;99.90
55173;DHT22;41061;52.822;6.860;2024-02-14T13:20:25;11.90;99.90
55173;DHT22;41061;52.822;6.860;2024-02-14T13:22:51;11.90;99.90
55173;DHT22;41061;52.822;6.860;2024-02-14T13:25:17;11.90;99.90
55173;DHT22;41061;52.822;6.860;2024-02-14T13:27:44;11.80;99.90
55173;DHT22;41061;52.822;6.860;2024-02-14T13:30:10;11.90;99.90
55173;DHT22;41061;52.822;6.860;2024-02-14T13:32:36;11.80;99.90
55173;DHT22;41061;52.822;6.860;2024-02-14T13:35:02;11.90;99.90
55173;DHT22;41061;52.822;6.860;2024-02-14T13:37:27;11.90;99.90
55173;DHT22;41061;52.822;6.860;2024-02-14T13:39:53;11.90;99.90
55173;DHT22;41061;52.822;6.860;2024-02-14T13:42:19;11.90;99.90
55173;DHT22;41061;52.822;6.860;2024-02-14T13:44:44;11.80;99.90
55173;DHT22;41061;52.822;6.860;2024-02-14T13:47:10;11.80;99.90
55173;DHT22;41061;52.822;6.860;2024-02-14T13:49:36;11.80;99.90
55173;DHT22;41061;52.822;6.860;2024-02-14T13:52:02;11.80;99.90
55173;DHT22;41061;52.822;6.860;2024-02-14T13:54:27;11.80;99.90
55173;DHT22;41061;52.822;6.860;2024-02-14T13:56:53;11.90;99.90
55173;DHT22;41061;52.822;6.860;2024-02-14T13:59:20;11.90;99.90
55173;DHT22;41061;52.822;6.860;2024-02-14T14:01:46;11.90;99.90
55173;DHT22;41061;52.822;6.860;2024-02-14T14:04:12;11.90;99.90
55173;DHT22;41061;52.822;6.860;2024-02-14T14:06:38;12.00;99.90
55173;DHT22;41061;52.822;6.860;2024-02-14T14:09:05;11.90;99.90
55173;DHT22;41061;52.822;6.860;2024-02-14T14:11:34;12.00;99.90
55173;DHT22;41061;52.822;6.860;2024-02-14T14:13:59;12.00;99.90
55173;DHT22;41061;52.822;6.860;2024-02-14T14:16:26;12.00;99.90
55173;DHT22;41061;52.822;6.860;2024-02-14T14:18:51;11.90;99.90
55173;DHT22;41061;52.822;6.860;2024-02-14T14:21:17;11.90;99.90
55173;DHT22;41061;52.822;6.860;2024-02-14T14:23:44;12.00;99.90
55173;DHT22;41061;52.822;6.860;2024-02-14T14:26:10;12.00;99.90
55173;DHT22;41061;52.822;6.860;2024-02-14T14:28:35;11.80;99.90
55173;DHT22;41061;52.822;6.860;2024-02-14T14:31:01;11.90;99.90
55173;DHT22;41061;52.822;6.860;2024-02-14T14:33:27;11.90;99.90
55173;DHT22;41061;52.822;6.860;2024-02-14T14:35:53;11.90;99.90
55173;DHT22;41061;52.822;6.860;2024-02-14T14:38:21;11.90;99.90
55173;DHT22;41061;52.822;6.860;2024-02-14T14:40:47;11.90;99.90
55173;DHT22;41061;52.822;6.860;2024-02-14T14:43:13;11.70;99.90
55173;DHT22;41061;52.822;6.860;2024-02-14T14:45:39;11.70;99.90
55173;DHT22;41061;52.822;6.860;2024-02-14T14:48:07;11.70;99.90
55173;DHT22;41061;52.822;6.860;2024-02-14T14:50:35;11.70;99.90
55173;DHT22;41061;52.822;6.860;2024-02-14T14:53:01;11.70;99.90
55173;DHT22;41061;52.822;6.860;2024-02-14T14:55:56;11.70;99.90
55173;DHT22;41061;52.822;6.860;2024-02-14T14:58:25;11.70;99.90
55173;DHT22;41061;52.822;6.860;2024-02-14T15:00:55;11.70;99.90
55173;DHT22;41061;52.822;6.860;2024-02-14T15:03:22;11.70;99.90
55173;DHT22;41061;52.822;6.860;2024-02-14T15:05:48;11.70;99.90
55173;DHT22;41061;52.822;6.860;2024-02-14T15:08:14;11.70;99.90
55173;DHT22;41061;52.822;6.860;2024-02-14T15:10:40;11.70;99.90
55173;DHT22;41061;52.822;6.860;2024-02-14T15:13:09;11.70;99.90
55173;DHT22;41061;52.822;6.860;2024-02-14T15:15:38;11.60;99.90
55173;DHT22;41061;52.822;6.860;2024-02-14T15:18:04;11.70;99.90
55173;DHT22;41061;52.822;6.860;2024-02-14T15:20:30;11.70;99.90
55173;DHT22;41061;52.822;6.860;2024-02-14T15:22:56;11.70;99.90
55173;DHT22;41061;52.822;6.860;2024-02-14T15:25:22;11.70;99.90
55173;DHT22;41061;52.822;6.860;2024-02-14T15:27:51;11.70;99.90
55173;DHT22;41061;52.822;6.860;2024-02-14T15:30:26;11.70;99.90
55173;DHT22;41061;52.822;6.860;2024-02-14T15:33:11;11.70;99.90
55173;DHT22;41061;52.822;6.860;2024-02-14T15:35:51;11.70;99.90
55173;DHT22;41061;52.822;6.860;2024-02-14T15:38:18;11.70;99.90
55173;DHT22;41061;52.822;6.860;2024-02-14T15:40:48;11.70;99.90
55173;DHT22;41061;52.822;6.860;2024-02-14T15:43:18;11.70;99.90
55173;DHT22;41061;52.822;6.860;2024-02-14T15:45:44;11.60;99.90
55173;DHT22;41061;52.822;6.860;2024-02-14T15:48:10;11.70;99.90
55173;DHT22;41061;52.822;6.860;2024-02-14T15:50:38;11.70;99.90
55173;DHT22;41061;52.822;6.860;2024-02-14T15:53:04;11.70;99.90
55173;DHT22;41061;52.822;6.860;2024-02-14T15:55:31;11.70;99.90
55173;DHT22;41061;52.822;6.860;2024-02-14T15:57:57;11.70;99.90
55173;DHT22;41061;52.822;6.860;2024-02-14T16:00:23;11.60;99.90
55173;DHT22;41061;52.822;6.860;2024-02-14T16:02:52;11.70;99.90
55173;DHT22;41061;52.822;6.860;2024-02-14T16:05:19;11.60;99.90
55173;DHT22;41061;52.822;6.860;2024-02-14T16:07:44;11.70;99.90
55173;DHT22;41061;52.822;6.860;2024-02-14T16:10:10;11.60;99.90
55173;DHT22;41061;52.822;6.860;2024-02-14T16:12:36;11.60;99.90
55173;DHT22;41061;52.822;6.860;2024-02-14T16:15:02;11.60;99.90
55173;DHT22;41061;52.822;6.860;2024-02-14T16:17:29;11.60;99.90
55173;DHT22;41061;52.822;6.860;2024-02-14T16:19:54;11.70;99.90
55173;DHT22;41061;52.822;6.860;2024-02-14T16:22:20;11.70;99.90
55173;DHT22;41061;52.822;6.860;2024-02-14T16:24:46;11.70;99.90
55173;DHT22;41061;52.822;6.860;2024-02-14T16:27:14;11.70;99.90
55173;DHT22;41061;52.822;6.860;2024-02-14T16:29:41;11.70;99.90
55173;DHT22;41061;52.822;6.860;2024-02-14T16:32:07;11.60;99.90
55173;DHT22;41061;52.822;6.860;2024-02-14T16:34:35;11.60;99.90
55173;DHT22;41061;52.822;6.860;2024-02-14T16:37:01;11.60;99.90
55173;DHT22;41061;52.822;6.860;2024-02-14T16:39:27;11.60;99.90
55173;DHT22;41061;52.822;6.860;2024-02-14T16:41:53;11.70;99.90
55173;DHT22;41061;52.822;6.860;2024-02-14T16:44:18;11.60;99.90
55173;DHT22;41061;52.822;6.860;2024-02-14T16:46:46;11.60;99.90
55173;DHT22;41061;52.822;6.860;2024-02-14T16:49:12;11.60;99.90
55173;DHT22;41061;52.822;6.860;2024-02-14T16:51:38;11.60;99.90
55173;DHT22;41061;52.822;6.860;2024-02-14T16:54:04;11.60;99.90
55173;DHT22;41061;52.822;6.860;2024-02-14T16:56:29;11.60;99.90
55173;DHT22;41061;52.822;6.860;2024-02-14T16:58:58;11.70;99.90
55173;DHT22;41061;52.822;6.860;2024-02-14T17:01:23;11.60;99.90
55173;DHT22;41061;52.822;6.860;2024-02-14T17:03:51;11.60;99.90
55173;DHT22;41061;52.822;6.860;2024-02-14T17:06:17;11.60;99.90
55173;DHT22;41061;52.822;6.860;2024-02-14T17:08:43;11.60;99.90
55173;DHT22;41061;52.822;6.860;2024-02-14T17:11:14;11.60;99.90
55173;DHT22;41061;52.822;6.860;2024-02-14T17:13:42;11.60;99.90
55173;DHT22;41061;52.822;6.860;2024-02-14T17:16:11;11.60;99.90
55173;DHT22;41061;52.822;6.860;2024-02-14T17:18:37;11.50;99.90
55173;DHT22;41061;52.822;6.860;2024-02-14T17:21:05;11.50;99.90
55173;DHT22;41061;52.822;6.860;2024-02-14T17:23:30;11.60;99.90
55173;DHT22;41061;52.822;6.860;2024-02-14T17:25:56;11.60;99.90
55173;DHT22;41061;52.822;6.860;2024-02-14T17:28:22;11.60;99.90
55173;DHT22;41061;52.822;6.860;2024-02-14T17:30:48;11.60;99.90
55173;DHT22;41061;52.822;6.860;2024-02-14T17:33:16;11.50;99.90
55173;DHT22;41061;52.822;6.860;2024-02-14T17:35:42;11.50;99.90
55173;DHT22;41061;52.822;6.860;2024-02-14T17:38:08;11.60;99.90
55173;DHT22;41061;52.822;6.860;2024-02-14T17:40:34;11.50;99.90
55173;DHT22;41061;52.822;6.860;2024-02-14T17:43:00;11.60;99.90
55173;DHT22;41061;52.822;6.860;2024-02-14T17:45:25;11.60;99.90
55173;DHT22;41061;52.822;6.860;2024-02-14T17:47:51;11.60;99.90
55173;DHT22;41061;52.822;6.860;2024-02-14T17:50:17;11.60;99.90
55173;DHT22;41061;52.822;6.860;2024-02-14T17:52:43;11.60;99.90
55173;DHT22;41061;52.822;6.860;2024-02-14T17:55:10;11.70;99.90
55173;DHT22;41061;52.822;6.860;2024-02-14T17:57:37;11.60;99.90
55173;DHT22;41061;52.822;6.860;2024-02-14T18:00:03;11.60;99.90
55173;DHT22;41061;52.822;6.860;2024-02-14T18:02:37;11.60;99.90
55173;DHT22;41061;52.822;6.860;2024-02-14T18:05:04;11.50;99.90
55173;DHT22;41061;52.822;6.860;2024-02-14T18:07:30;11.60;99.90
55173;DHT22;41061;52.822;6.860;2024-02-14T18:09:55;11.60;99.90
55173;DHT22;41061;52.822;6.860;2024-02-14T18:12:21;11.60;99.90
55173;DHT22;41061;52.822;6.860;2024-02-14T18:14:49;11.60;99.90
55173;DHT22;41061;52.822;6.860;2024-02-14T18:17:15;11.60;99.90
55173;DHT22;41061;52.822;6.860;2024-02-14T18:19:41;11.60;99.90
55173;DHT22;41061;52.822;6.860;2024-02-14T18:22:06;11.60;99.90
55173;DHT22;41061;52.822;6.860;2024-02-14T18:24:33;11.60;99.90
55173;DHT22;41061;52.822;6.860;2024-02-14T18:26:59;11.60;99.90
55173;DHT22;41061;52.822;6.860;2024-02-14T18:29:25;11.50;99.90
55173;DHT22;41061;52.822;6.860;2024-02-14T18:31:51;11.60;99.90
55173;DHT22;41061;52.822;6.860;2024-02-14T18:34:17;11.60;99.90
55173;DHT22;41061;52.822;6.860;2024-02-14T18:36:43;11.60;99.90
55173;DHT22;41061;52.822;6.860;2024-02-14T18:39:09;11.60;99.90
55173;DHT22;41061;52.822;6.860;2024-02-14T18:41:35;11.60;99.90
55173;DHT22;41061;52.822;6.860;2024-02-14T18:44:01;11.60;99.90
55173;DHT22;41061;52.822;6.860;2024-02-14T18:46:29;11.60;99.90
55173;DHT22;41061;52.822;6.860;2024-02-14T18:48:56;11.60;99.90
55173;DHT22;41061;52.822;6.860;2024-02-14T18:51:22;11.60;99.90
55173;DHT22;41061;52.822;6.860;2024-02-14T18:53:48;11.60;99.90
55173;DHT22;41061;52.822;6.860;2024-02-14T18:56:14;11.60;99.90
55173;DHT22;41061;52.822;6.860;2024-02-14T18:58:40;11.50;99.90
55173;DHT22;41061;52.822;6.860;2024-02-14T19:01:06;11.70;99.90
55173;DHT22;41061;52.822;6.860;2024-02-14T19:03:32;11.60;99.90
55173;DHT22;41061;52.822;6.860;2024-02-14T19:05:58;11.70;99.90
55173;DHT22;41061;52.822;6.860;2024-02-14T19:08:24;11.70;99.90
55173;DHT22;41061;52.822;6.860;2024-02-14T19:10:51;11.70;99.90
55173;DHT22;41061;52.822;6.860;2024-02-14T19:13:17;11.70;99.90
55173;DHT22;41061;52.822;6.860;2024-02-14T19:15:42;11.70;99.90
55173;DHT22;41061;52.822;6.860;2024-02-14T19:18:08;11.80;99.90
55173;DHT22;41061;52.822;6.860;2024-02-14T19:20:34;11.70;99.90
55173;DHT22;41061;52.822;6.860;2024-02-14T19:23:00;11.80;99.90
55173;DHT22;41061;52.822;6.860;2024-02-14T19:25:31;11.80;99.90
55173;DHT22;41061;52.822;6.860;2024-02-14T19:27:57;11.80;99.90
55173;DHT22;41061;52.822;6.860;2024-02-14T19:30:22;11.70;99.90
55173;DHT22;41061;52.822;6.860;2024-02-14T19:32:48;11.90;99.90
55173;DHT22;41061;52.822;6.860;2024-02-14T19:35:14;11.90;99.90
55173;DHT22;41061;52.822;6.860;2024-02-14T19:37:40;11.90;99.90
55173;DHT22;41061;52.822;6.860;2024-02-14T19:40:06;11.90;99.90
55173;DHT22;41061;52.822;6.860;2024-02-14T19:42:33;11.90;99.90
55173;DHT22;41061;52.822;6.860;2024-02-14T19:44:58;11.80;99.90
55173;DHT22;41061;52.822;6.860;2024-02-14T19:47:24;11.90;99.90
55173;DHT22;41061;52.822;6.860;2024-02-14T19:49:52;11.90;99.90
55173;DHT22;41061;52.822;6.860;2024-02-14T19:52:17;11.90;99.90
55173;DHT22;41061;52.822;6.860;2024-02-14T19:54:43;11.90;99.90
55173;DHT22;41061;52.822;6.860;2024-02-14T19:57:09;11.80;99.90
55173;DHT22;41061;52.822;6.860;2024-02-14T19:59:34;11.80;99.90
55173;DHT22;41061;52.822;6.860;2024-02-14T20:02:00;11.80;99.90
55173;DHT22;41061;52.822;6.860;2024-02-14T20:04:26;11.90;99.90
55173;DHT22;41061;52.822;6.860;2024-02-14T20:06:52;11.90;99.90
55173;DHT22;41061;52.822;6.860;2024-02-14T20:09:21;11.90;99.90
55173;DHT22;41061;52.822;6.860;2024-02-14T20:11:47;11.90;99.90
55173;DHT22;41061;52.822;6.860;2024-02-14T20:14:13;11.90;99.90
55173;DHT22;41061;52.822;6.860;2024-02-14T20:16:38;11.80;99.90
55173;DHT22;41061;52.822;6.860;2024-02-14T20:19:04;11.90;99.90
55173;DHT22;41061;52.822;6.860;2024-02-14T20:21:30;11.90;99.90
55173;DHT22;41061;52.822;6.860;2024-02-14T20:23:57;11.90;99.90
55173;DHT22;41061;52.822;6.860;2024-02-14T20:26:31;11.80;99.90
55173;DHT22;41061;52.822;6.860;2024-02-14T20:28:57;11.90;99.90
55173;DHT22;41061;52.822;6.860;2024-02-14T20:31:23;11.90;99.90
55173;DHT22;41061;52.822;6.860;2024-02-14T20:33:49;11.90;99.90
55173;DHT22;41061;52.822;6.860;2024-02-14T20:36:14;11.90;99.90
55173;DHT22;41061;52.822;6.860;2024-02-14T20:38:40;11.90;99.90
55173;DHT22;41061;52.822;6.860;2024-02-14T20:41:06;11.90;99.90
55173;DHT22;41061;52.822;6.860;2024-02-14T20:43:33;11.90;99.90
55173;DHT22;41061;52.822;6.860;2024-02-14T20:45:59;11.90;99.90
55173;DHT22;41061;52.822;6.860;2024-02-14T20:48:25;11.90;99.90
55173;DHT22;41061;52.822;6.860;2024-02-14T20:50:53;11.90;99.90
55173;DHT22;41061;52.822;6.860;2024-02-14T20:53:18;11.80;99.90
55173;DHT22;41061;52.822;6.860;2024-02-14T20:55:44;11.90;99.90
55173;DHT22;41061;52.822;6.860;2024-02-14T20:58:10;11.80;99.90
55173;DHT22;41061;52.822;6.860;2024-02-14T21:00:36;11.80;99.90
55173;DHT22;41061;52.822;6.860;2024-02-14T21:03:01;11.90;99.90
55173;DHT22;41061;52.822;6.860;2024-02-14T21:05:27;11.80;99.90
55173;DHT22;41061;52.822;6.860;2024-02-14T21:07:53;11.80;99.90
55173;DHT22;41061;52.822;6.860;2024-02-14T21:10:19;11.90;99.90
55173;DHT22;41061;52.822;6.860;2024-02-14T21:12:44;11.80;99.90
55173;DHT22;41061;52.822;6.860;2024-02-14T21:15:10;11.80;99.90
55173;DHT22;41061;52.822;6.860;2024-02-14T21:17:36;11.90;99.90
55173;DHT22;41061;52.822;6.860;2024-02-14T21:20:02;11.90;99.90
55173;DHT22;41061;52.822;6.860;2024-02-14T21:22:27;11.80;99.90
55173;DHT22;41061;52.822;6.860;2024-02-14T21:24:53;11.90;99.90
55173;DHT22;41061;52.822;6.860;2024-02-14T21:27:19;11.90;99.90
55173;DHT22;41061;52.822;6.860;2024-02-14T21:29:45;11.90;99.90